sensor_id;sensor_type;location;lat;lon;timestamp;P1;durP1;ratioP1;P2;durP2;ratioP2
74789;SDS011;63318;52.406;13.416;2023-05-10T00:01:13;5.70;;;3.00;;
74789;SDS011;63318;52.406;13.416;2023-05-10T00:03:42;6.50;;;4.20;;
74789;SDS011;63318;52.406;13.416;2023-05-10T00:06:10;7.40;;;4.00;;
74789;SDS011;63318;52.406;13.416;2023-05-10T00:08:39;7.20;;;4.70;;
74789;SDS011;63318;52.406;13.416;2023-05-10T00:11:07;7.00;;;4.40;;
74789;SDS011;63318;52.406;13.416;2023-05-10T00:13:36;8.30;;;4.40;;
74789;SDS011;63318;52.406;13.416;2023-05-10T00:16:05;7.60;;;4.40;;
74789;SDS011;63318;52.406;13.416;2023-05-10T00:18:33;6.90;;;4.40;;
74789;SDS011;63318;52.406;13.416;2023-05-10T00:21:01;8.40;;;4.20;;
74789;SDS011;63318;52.406;13.416;2023-05-10T00:23:30;8.50;;;4.40;;
74789;SDS011;63318;52.406;13.416;2023-05-10T00:25:59;8.80;;;4.30;;
74789;SDS011;63318;52.406;13.416;2023-05-10T00:28:28;9.10;;;4.50;;
74789;SDS011;63318;52.406;13.416;2023-05-10T00:30:58;7.40;;;4.90;;
74789;SDS011;63318;52.406;13.416;2023-05-10T00:33:26;7.60;;;4.30;;
74789;SDS011;63318;52.406;13.416;2023-05-10T00:35:54;6.70;;;4.40;;
74789;SDS011;63318;52.406;13.416;2023-05-10T00:38:23;7.30;;;4.40;;
74789;SDS011;63318;52.406;13.416;2023-05-10T00:40:51;5.90;;;3.90;;
74789;SDS011;63318;52.406;13.416;2023-05-10T00:43:20;8.50;;;5.00;;
74789;SDS011;63318;52.406;13.416;2023-05-10T00:45:49;8.60;;;4.50;;
74789;SDS011;63318;52.406;13.416;2023-05-10T00:48:19;7.10;;;4.30;;
74789;SDS011;63318;52.406;13.416;2023-05-10T00:50:48;7.80;;;4.70;;
74789;SDS011;63318;52.406;13.416;2023-05-10T00:53:17;7.00;;;4.20;;
74789;SDS011;63318;52.406;13.416;2023-05-10T00:55:45;7.00;;;4.20;;
74789;SDS011;63318;52.406;13.416;2023-05-10T00:58:14;6.40;;;4.10;;
74789;SDS011;63318;52.406;13.416;2023-05-10T01:00:43;7.90;;;4.50;;
74789;SDS011;63318;52.406;13.416;2023-05-10T01:03:15;7.20;;;3.70;;
74789;SDS011;63318;52.406;13.416;2023-05-10T01:05:44;7.80;;;4.70;;
74789;SDS011;63318;52.406;13.416;2023-05-10T01:08:12;8.80;;;3.90;;
74789;SDS011;63318;52.406;13.416;2023-05-10T01:10:41;7.90;;;4.60;;
74789;SDS011;63318;52.406;13.416;2023-05-10T01:13:11;6.90;;;3.80;;
74789;SDS011;63318;52.406;13.416;2023-05-10T01:15:45;7.10;;;3.80;;
74789;SDS011;63318;52.406;13.416;2023-05-10T01:18:14;7.90;;;4.10;;
74789;SDS011;63318;52.406;13.416;2023-05-10T01:20:48;7.30;;;4.30;;
74789;SDS011;63318;52.406;13.416;2023-05-10T01:23:30;7.90;;;4.70;;
74789;SDS011;63318;52.406;13.416;2023-05-10T01:26:19;7.30;;;4.50;;
74789;SDS011;63318;52.406;13.416;2023-05-10T01:29:08;6.60;;;4.00;;
74789;SDS011;63318;52.406;13.416;2023-05-10T01:34:55;6.20;;;3.90;;
74789;SDS011;63318;52.406;13.416;2023-05-10T01:37:31;10.10;;;4.80;;
74789;SDS011;63318;52.406;13.416;2023-05-10T01:40:08;6.30;;;4.00;;
74789;SDS011;63318;52.406;13.416;2023-05-10T01:42:51;7.20;;;4.00;;
74789;SDS011;63318;52.406;13.416;2023-05-10T01:45:27;10.50;;;4.70;;
74789;SDS011;63318;52.406;13.416;2023-05-10T01:48:03;8.30;;;4.90;;
74789;SDS011;63318;52.406;13.416;2023-05-10T01:50:35;6.60;;;4.40;;
74789;SDS011;63318;52.406;13.416;2023-05-10T01:53:08;6.60;;;4.10;;
74789;SDS011;63318;52.406;13.416;2023-05-10T01:55:41;8.80;;;4.50;;
74789;SDS011;63318;52.406;13.416;2023-05-10T01:58:13;8.20;;;4.60;;
74789;SDS011;63318;52.406;13.416;2023-05-10T02:00:46;7.00;;;3.90;;
74789;SDS011;63318;52.406;13.416;2023-05-10T02:03:18;7.00;;;5.00;;
74789;SDS011;63318;52.406;13.416;2023-05-10T02:05:50;7.80;;;4.40;;
74789;SDS011;63318;52.406;13.416;2023-05-10T02:08:21;7.60;;;4.90;;
74789;SDS011;63318;52.406;13.416;2023-05-10T02:10:51;6.40;;;3.80;;
74789;SDS011;63318;52.406;13.416;2023-05-10T02:13:22;6.60;;;4.10;;
74789;SDS011;63318;52.406;13.416;2023-05-10T02:15:52;6.60;;;4.00;;
74789;SDS011;63318;52.406;13.416;2023-05-10T02:18:23;9.10;;;4.70;;
74789;SDS011;63318;52.406;13.416;2023-05-10T02:20:54;7.30;;;4.60;;
74789;SDS011;63318;52.406;13.416;2023-05-10T02:23:24;7.60;;;4.30;;
74789;SDS011;63318;52.406;13.416;2023-05-10T02:25:54;7.10;;;4.40;;
74789;SDS011;63318;52.406;13.416;2023-05-10T02:28:24;7.10;;;4.60;;
74789;SDS011;63318;52.406;13.416;2023-05-10T02:30:54;7.90;;;4.60;;
74789;SDS011;63318;52.406;13.416;2023-05-10T02:33:23;8.20;;;5.20;;
74789;SDS011;63318;52.406;13.416;2023-05-10T02:35:54;7.20;;;4.30;;
74789;SDS011;63318;52.406;13.416;2023-05-10T02:38:24;8.70;;;5.00;;
74789;SDS011;63318;52.406;13.416;2023-05-10T02:40:55;9.40;;;4.80;;
74789;SDS011;63318;52.406;13.416;2023-05-10T02:43:23;8.60;;;4.40;;
74789;SDS011;63318;52.406;13.416;2023-05-10T02:45:52;8.00;;;5.00;;
74789;SDS011;63318;52.406;13.416;2023-05-10T02:48:21;8.40;;;5.10;;
74789;SDS011;63318;52.406;13.416;2023-05-10T02:50:50;9.60;;;4.40;;
74789;SDS011;63318;52.406;13.416;2023-05-10T02:53:22;8.00;;;4.80;;
74789;SDS011;63318;52.406;13.416;2023-05-10T02:55:57;9.10;;;4.90;;
74789;SDS011;63318;52.406;13.416;2023-05-10T02:58:30;9.20;;;5.30;;
74789;SDS011;63318;52.406;13.416;2023-05-10T03:00:59;10.90;;;4.80;;
74789;SDS011;63318;52.406;13.416;2023-05-10T03:03:27;9.80;;;5.50;;
74789;SDS011;63318;52.406;13.416;2023-05-10T03:05:56;8.10;;;4.80;;
74789;SDS011;63318;52.406;13.416;2023-05-10T03:08:24;7.70;;;5.20;;
74789;SDS011;63318;52.406;13.416;2023-05-10T03:11:06;8.20;;;5.00;;
74789;SDS011;63318;52.406;13.416;2023-05-10T03:13:46;7.10;;;4.10;;
74789;SDS011;63318;52.406;13.416;2023-05-10T03:16:24;9.10;;;4.60;;
74789;SDS011;63318;52.406;13.416;2023-05-10T03:18:56;7.90;;;4.40;;
74789;SDS011;63318;52.406;13.416;2023-05-10T03:21:33;9.00;;;4.40;;
74789;SDS011;63318;52.406;13.416;2023-05-10T03:24:09;10.30;;;4.70;;
74789;SDS011;63318;52.406;13.416;2023-05-10T03:26:40;7.80;;;4.70;;
74789;SDS011;63318;52.406;13.416;2023-05-10T03:29:12;8.20;;;4.50;;
74789;SDS011;63318;52.406;13.416;2023-05-10T03:31:42;9.60;;;4.90;;
74789;SDS011;63318;52.406;13.416;2023-05-10T03:34:10;7.00;;;4.20;;
74789;SDS011;63318;52.406;13.416;2023-05-10T03:36:39;7.10;;;4.60;;
74789;SDS011;63318;52.406;13.416;2023-05-10T03:39:07;8.50;;;4.40;;
74789;SDS011;63318;52.406;13.416;2023-05-10T03:41:36;7.10;;;4.10;;
74789;SDS011;63318;52.406;13.416;2023-05-10T03:44:05;8.00;;;4.70;;
74789;SDS011;63318;52.406;13.416;2023-05-10T03:46:33;8.10;;;4.90;;
74789;SDS011;63318;52.406;13.416;2023-05-10T03:49:02;8.40;;;5.10;;
74789;SDS011;63318;52.406;13.416;2023-05-10T03:51:30;9.20;;;4.70;;
74789;SDS011;63318;52.406;13.416;2023-05-10T03:53:59;9.20;;;4.70;;
74789;SDS011;63318;52.406;13.416;2023-05-10T03:56:27;8.80;;;4.00;;
74789;SDS011;63318;52.406;13.416;2023-05-10T03:58:56;8.80;;;4.50;;
74789;SDS011;63318;52.406;13.416;2023-05-10T04:01:25;8.50;;;4.20;;
74789;SDS011;63318;52.406;13.416;2023-05-10T04:03:54;7.30;;;4.50;;
74789;SDS011;63318;52.406;13.416;2023-05-10T04:06:22;7.50;;;4.00;;
74789;SDS011;63318;52.406;13.416;2023-05-10T04:08:50;7.80;;;4.40;;
74789;SDS011;63318;52.406;13.416;2023-05-10T04:11:19;8.40;;;4.40;;
74789;SDS011;63318;52.406;13.416;2023-05-10T04:13:48;8.90;;;4.60;;
74789;SDS011;63318;52.406;13.416;2023-05-10T04:16:17;8.10;;;4.30;;
74789;SDS011;63318;52.406;13.416;2023-05-10T04:18:46;6.80;;;3.90;;
74789;SDS011;63318;52.406;13.416;2023-05-10T04:21:14;7.30;;;4.40;;
74789;SDS011;63318;52.406;13.416;2023-05-10T04:23:43;7.10;;;4.00;;
74789;SDS011;63318;52.406;13.416;2023-05-10T04:26:12;10.80;;;4.90;;
74789;SDS011;63318;52.406;13.416;2023-05-10T04:28:40;7.50;;;3.80;;
74789;SDS011;63318;52.406;13.416;2023-05-10T04:31:09;7.30;;;3.90;;
74789;SDS011;63318;52.406;13.416;2023-05-10T04:33:44;7.40;;;3.90;;
74789;SDS011;63318;52.406;13.416;2023-05-10T04:36:17;7.30;;;3.70;;
74789;SDS011;63318;52.406;13.416;2023-05-10T04:38:46;7.80;;;3.70;;
74789;SDS011;63318;52.406;13.416;2023-05-10T04:41:14;8.30;;;4.00;;
74789;SDS011;63318;52.406;13.416;2023-05-10T04:43:42;6.30;;;3.60;;
74789;SDS011;63318;52.406;13.416;2023-05-10T04:46:11;8.40;;;3.70;;
74789;SDS011;63318;52.406;13.416;2023-05-10T04:48:39;7.30;;;3.60;;
74789;SDS011;63318;52.406;13.416;2023-05-10T04:51:09;6.10;;;3.70;;
74789;SDS011;63318;52.406;13.416;2023-05-10T04:53:38;7.20;;;3.70;;
74789;SDS011;63318;52.406;13.416;2023-05-10T04:56:06;7.70;;;4.20;;
74789;SDS011;63318;52.406;13.416;2023-05-10T04:58:35;7.20;;;3.20;;
74789;SDS011;63318;52.406;13.416;2023-05-10T05:01:12;7.00;;;4.60;;
74789;SDS011;63318;52.406;13.416;2023-05-10T05:03:40;7.00;;;3.00;;
74789;SDS011;63318;52.406;13.416;2023-05-10T05:06:08;5.90;;;2.90;;
74789;SDS011;63318;52.406;13.416;2023-05-10T05:08:37;8.90;;;3.20;;
74789;SDS011;63318;52.406;13.416;2023-05-10T05:11:05;9.50;;;3.60;;
74789;SDS011;63318;52.406;13.416;2023-05-10T05:13:33;6.90;;;3.20;;
74789;SDS011;63318;52.406;13.416;2023-05-10T05:16:02;5.50;;;3.10;;
74789;SDS011;63318;52.406;13.416;2023-05-10T05:18:32;5.90;;;3.20;;
74789;SDS011;63318;52.406;13.416;2023-05-10T05:21:01;6.80;;;3.70;;
74789;SDS011;63318;52.406;13.416;2023-05-10T05:23:29;6.40;;;2.80;;
74789;SDS011;63318;52.406;13.416;2023-05-10T05:25:59;5.60;;;3.40;;
74789;SDS011;63318;52.406;13.416;2023-05-10T05:28:27;8.20;;;3.40;;
74789;SDS011;63318;52.406;13.416;2023-05-10T05:30:55;5.80;;;3.40;;
74789;SDS011;63318;52.406;13.416;2023-05-10T05:33:24;9.20;;;3.40;;
74789;SDS011;63318;52.406;13.416;2023-05-10T05:35:53;5.70;;;2.90;;
74789;SDS011;63318;52.406;13.416;2023-05-10T05:38:22;9.20;;;3.60;;
74789;SDS011;63318;52.406;13.416;2023-05-10T05:40:50;6.60;;;3.30;;
74789;SDS011;63318;52.406;13.416;2023-05-10T05:43:19;8.20;;;3.30;;
74789;SDS011;63318;52.406;13.416;2023-05-10T05:45:47;5.50;;;2.90;;
74789;SDS011;63318;52.406;13.416;2023-05-10T05:48:16;6.10;;;2.90;;
74789;SDS011;63318;52.406;13.416;2023-05-10T05:50:44;4.90;;;2.70;;
74789;SDS011;63318;52.406;13.416;2023-05-10T05:53:13;5.30;;;3.00;;
74789;SDS011;63318;52.406;13.416;2023-05-10T05:55:45;5.00;;;2.90;;
74789;SDS011;63318;52.406;13.416;2023-05-10T05:58:19;5.00;;;2.50;;
74789;SDS011;63318;52.406;13.416;2023-05-10T06:00:48;4.50;;;2.50;;
74789;SDS011;63318;52.406;13.416;2023-05-10T06:03:16;6.00;;;2.40;;
74789;SDS011;63318;52.406;13.416;2023-05-10T06:05:45;5.60;;;2.00;;
74789;SDS011;63318;52.406;13.416;2023-05-10T06:08:14;5.30;;;3.00;;
74789;SDS011;63318;52.406;13.416;2023-05-10T06:10:43;3.90;;;2.00;;
74789;SDS011;63318;52.406;13.416;2023-05-10T06:13:11;6.00;;;2.30;;
74789;SDS011;63318;52.406;13.416;2023-05-10T06:15:40;4.10;;;2.00;;
74789;SDS011;63318;52.406;13.416;2023-05-10T06:18:08;4.60;;;2.40;;
74789;SDS011;63318;52.406;13.416;2023-05-10T06:20:37;5.30;;;2.50;;
74789;SDS011;63318;52.406;13.416;2023-05-10T06:23:07;6.30;;;2.40;;
74789;SDS011;63318;52.406;13.416;2023-05-10T06:25:35;4.60;;;2.10;;
74789;SDS011;63318;52.406;13.416;2023-05-10T06:28:04;4.40;;;2.40;;
74789;SDS011;63318;52.406;13.416;2023-05-10T06:30:32;4.30;;;1.90;;
74789;SDS011;63318;52.406;13.416;2023-05-10T06:33:02;4.60;;;2.40;;
74789;SDS011;63318;52.406;13.416;2023-05-10T06:35:30;4.50;;;2.30;;
74789;SDS011;63318;52.406;13.416;2023-05-10T06:37:59;5.70;;;2.30;;
74789;SDS011;63318;52.406;13.416;2023-05-10T06:40:29;5.20;;;2.40;;
74789;SDS011;63318;52.406;13.416;2023-05-10T06:42:57;3.80;;;1.90;;
74789;SDS011;63318;52.406;13.416;2023-05-10T06:45:27;4.80;;;2.20;;
74789;SDS011;63318;52.406;13.416;2023-05-10T06:47:55;6.70;;;2.40;;
74789;SDS011;63318;52.406;13.416;2023-05-10T06:50:24;3.80;;;2.00;;
74789;SDS011;63318;52.406;13.416;2023-05-10T06:52:52;7.20;;;2.00;;
74789;SDS011;63318;52.406;13.416;2023-05-10T06:55:21;4.00;;;1.90;;
74789;SDS011;63318;52.406;13.416;2023-05-10T06:57:50;6.40;;;2.40;;
74789;SDS011;63318;52.406;13.416;2023-05-10T07:00:19;5.10;;;2.60;;
74789;SDS011;63318;52.406;13.416;2023-05-10T07:02:48;3.90;;;2.30;;
74789;SDS011;63318;52.406;13.416;2023-05-10T07:05:16;5.30;;;2.00;;
74789;SDS011;63318;52.406;13.416;2023-05-10T07:07:45;5.20;;;1.90;;
74789;SDS011;63318;52.406;13.416;2023-05-10T07:10:13;5.40;;;1.80;;
74789;SDS011;63318;52.406;13.416;2023-05-10T07:12:43;4.60;;;2.00;;
74789;SDS011;63318;52.406;13.416;2023-05-10T07:15:11;5.90;;;2.10;;
74789;SDS011;63318;52.406;13.416;2023-05-10T07:17:40;4.90;;;1.90;;
74789;SDS011;63318;52.406;13.416;2023-05-10T07:20:09;5.30;;;1.70;;
74789;SDS011;63318;52.406;13.416;2023-05-10T07:22:38;6.60;;;2.10;;
74789;SDS011;63318;52.406;13.416;2023-05-10T07:25:07;5.20;;;1.80;;
74789;SDS011;63318;52.406;13.416;2023-05-10T07:27:37;8.60;;;1.90;;
74789;SDS011;63318;52.406;13.416;2023-05-10T07:30:06;5.80;;;2.10;;
74789;SDS011;63318;52.406;13.416;2023-05-10T07:32:36;5.90;;;1.90;;
74789;SDS011;63318;52.406;13.416;2023-05-10T07:35:05;4.20;;;1.80;;
74789;SDS011;63318;52.406;13.416;2023-05-10T07:37:34;3.90;;;1.70;;
74789;SDS011;63318;52.406;13.416;2023-05-10T07:40:03;7.00;;;2.10;;
74789;SDS011;63318;52.406;13.416;2023-05-10T07:42:33;4.20;;;2.10;;
74789;SDS011;63318;52.406;13.416;2023-05-10T07:45:01;4.10;;;2.00;;
74789;SDS011;63318;52.406;13.416;2023-05-10T07:47:30;4.10;;;1.90;;
74789;SDS011;63318;52.406;13.416;2023-05-10T07:50:01;5.50;;;2.10;;
74789;SDS011;63318;52.406;13.416;2023-05-10T07:52:30;6.60;;;1.80;;
74789;SDS011;63318;52.406;13.416;2023-05-10T07:54:59;6.40;;;1.90;;
74789;SDS011;63318;52.406;13.416;2023-05-10T07:57:27;4.50;;;1.80;;
74789;SDS011;63318;52.406;13.416;2023-05-10T07:59:55;3.70;;;1.70;;
74789;SDS011;63318;52.406;13.416;2023-05-10T08:02:24;4.20;;;1.90;;
74789;SDS011;63318;52.406;13.416;2023-05-10T08:04:53;4.30;;;1.80;;
74789;SDS011;63318;52.406;13.416;2023-05-10T08:07:22;5.20;;;1.90;;
74789;SDS011;63318;52.406;13.416;2023-05-10T08:09:51;4.30;;;1.80;;
74789;SDS011;63318;52.406;13.416;2023-05-10T08:12:20;5.30;;;1.80;;
74789;SDS011;63318;52.406;13.416;2023-05-10T08:14:48;4.80;;;2.00;;
74789;SDS011;63318;52.406;13.416;2023-05-10T08:17:16;4.50;;;2.10;;
74789;SDS011;63318;52.406;13.416;2023-05-10T08:19:45;3.30;;;1.70;;
74789;SDS011;63318;52.406;13.416;2023-05-10T08:22:13;5.60;;;2.30;;
74789;SDS011;63318;52.406;13.416;2023-05-10T08:24:41;4.10;;;1.90;;
74789;SDS011;63318;52.406;13.416;2023-05-10T08:27:10;6.40;;;2.60;;
74789;SDS011;63318;52.406;13.416;2023-05-10T08:29:43;4.10;;;1.90;;
74789;SDS011;63318;52.406;13.416;2023-05-10T08:32:11;5.00;;;1.80;;
74789;SDS011;63318;52.406;13.416;2023-05-10T08:34:39;5.50;;;1.80;;
74789;SDS011;63318;52.406;13.416;2023-05-10T08:37:08;6.30;;;2.10;;
74789;SDS011;63318;52.406;13.416;2023-05-10T08:39:37;4.20;;;1.80;;
74789;SDS011;63318;52.406;13.416;2023-05-10T08:42:05;4.60;;;2.00;;
74789;SDS011;63318;52.406;13.416;2023-05-10T08:44:37;3.90;;;1.80;;
74789;SDS011;63318;52.406;13.416;2023-05-10T08:47:06;5.60;;;2.20;;
74789;SDS011;63318;52.406;13.416;2023-05-10T08:49:35;4.20;;;1.70;;
74789;SDS011;63318;52.406;13.416;2023-05-10T08:52:05;4.50;;;2.00;;
74789;SDS011;63318;52.406;13.416;2023-05-10T08:54:34;5.40;;;1.80;;
74789;SDS011;63318;52.406;13.416;2023-05-10T08:57:04;4.90;;;1.90;;
74789;SDS011;63318;52.406;13.416;2023-05-10T08:59:33;4.10;;;2.00;;
74789;SDS011;63318;52.406;13.416;2023-05-10T09:02:03;6.90;;;2.30;;
74789;SDS011;63318;52.406;13.416;2023-05-10T09:04:32;7.50;;;2.30;;
74789;SDS011;63318;52.406;13.416;2023-05-10T09:07:01;5.20;;;1.90;;
74789;SDS011;63318;52.406;13.416;2023-05-10T09:09:30;6.70;;;2.10;;
74789;SDS011;63318;52.406;13.416;2023-05-10T09:11:59;5.40;;;1.90;;
74789;SDS011;63318;52.406;13.416;2023-05-10T09:14:28;4.30;;;2.10;;
74789;SDS011;63318;52.406;13.416;2023-05-10T09:16:57;3.70;;;1.70;;
74789;SDS011;63318;52.406;13.416;2023-05-10T09:19:26;5.80;;;2.00;;
74789;SDS011;63318;52.406;13.416;2023-05-10T09:21:56;5.00;;;1.80;;
74789;SDS011;63318;52.406;13.416;2023-05-10T09:24:26;4.40;;;2.00;;
74789;SDS011;63318;52.406;13.416;2023-05-10T09:26:55;3.50;;;1.70;;
74789;SDS011;63318;52.406;13.416;2023-05-10T09:29:25;4.30;;;2.00;;
74789;SDS011;63318;52.406;13.416;2023-05-10T09:32:05;4.80;;;2.00;;
74789;SDS011;63318;52.406;13.416;2023-05-10T09:34:33;5.90;;;2.00;;
74789;SDS011;63318;52.406;13.416;2023-05-10T09:37:03;3.80;;;1.90;;
74789;SDS011;63318;52.406;13.416;2023-05-10T09:39:34;4.00;;;2.00;;
74789;SDS011;63318;52.406;13.416;2023-05-10T09:42:04;3.50;;;1.70;;
74789;SDS011;63318;52.406;13.416;2023-05-10T09:44:33;5.10;;;1.90;;
74789;SDS011;63318;52.406;13.416;2023-05-10T09:47:05;4.50;;;1.80;;
74789;SDS011;63318;52.406;13.416;2023-05-10T09:49:34;6.10;;;2.40;;
74789;SDS011;63318;52.406;13.416;2023-05-10T09:52:03;5.40;;;1.80;;
74789;SDS011;63318;52.406;13.416;2023-05-10T09:54:33;5.00;;;2.00;;
74789;SDS011;63318;52.406;13.416;2023-05-10T09:57:02;4.20;;;1.90;;
74789;SDS011;63318;52.406;13.416;2023-05-10T09:59:32;4.40;;;1.70;;
74789;SDS011;63318;52.406;13.416;2023-05-10T10:02:01;6.40;;;2.60;;
74789;SDS011;63318;52.406;13.416;2023-05-10T10:04:30;5.50;;;2.20;;
74789;SDS011;63318;52.406;13.416;2023-05-10T10:07:05;4.90;;;2.00;;
74789;SDS011;63318;52.406;13.416;2023-05-10T10:09:34;4.40;;;1.80;;
74789;SDS011;63318;52.406;13.416;2023-05-10T10:12:04;5.40;;;1.70;;
74789;SDS011;63318;52.406;13.416;2023-05-10T10:14:32;5.10;;;1.70;;
74789;SDS011;63318;52.406;13.416;2023-05-10T10:17:02;5.10;;;1.80;;
74789;SDS011;63318;52.406;13.416;2023-05-10T10:19:31;4.00;;;1.80;;
74789;SDS011;63318;52.406;13.416;2023-05-10T10:22:01;3.60;;;1.90;;
74789;SDS011;63318;52.406;13.416;2023-05-10T10:24:29;6.50;;;2.00;;
74789;SDS011;63318;52.406;13.416;2023-05-10T10:26:59;5.30;;;1.90;;
74789;SDS011;63318;52.406;13.416;2023-05-10T10:29:36;4.40;;;1.60;;
74789;SDS011;63318;52.406;13.416;2023-05-10T10:32:17;4.40;;;1.70;;
74789;SDS011;63318;52.406;13.416;2023-05-10T10:34:52;4.30;;;1.80;;
74789;SDS011;63318;52.406;13.416;2023-05-10T10:37:22;4.60;;;1.60;;
74789;SDS011;63318;52.406;13.416;2023-05-10T10:42:53;5.00;;;1.90;;
74789;SDS011;63318;52.406;13.416;2023-05-10T10:45:23;7.70;;;2.00;;
74789;SDS011;63318;52.406;13.416;2023-05-10T10:47:56;4.60;;;1.80;;
74789;SDS011;63318;52.406;13.416;2023-05-10T10:50:53;4.40;;;1.70;;
74789;SDS011;63318;52.406;13.416;2023-05-10T10:53:26;3.40;;;2.00;;
74789;SDS011;63318;52.406;13.416;2023-05-10T10:56:03;4.30;;;1.80;;
74789;SDS011;63318;52.406;13.416;2023-05-10T10:58:34;5.20;;;1.80;;
74789;SDS011;63318;52.406;13.416;2023-05-10T11:01:14;5.90;;;1.80;;
74789;SDS011;63318;52.406;13.416;2023-05-10T11:06:47;7.00;;;2.10;;
74789;SDS011;63318;52.406;13.416;2023-05-10T11:09:15;5.70;;;2.10;;
74789;SDS011;63318;52.406;13.416;2023-05-10T11:11:50;4.60;;;1.80;;
74789;SDS011;63318;52.406;13.416;2023-05-10T11:14:23;7.10;;;2.00;;
74789;SDS011;63318;52.406;13.416;2023-05-10T11:16:53;4.90;;;1.90;;
74789;SDS011;63318;52.406;13.416;2023-05-10T11:19:23;3.90;;;1.60;;
74789;SDS011;63318;52.406;13.416;2023-05-10T11:24:42;4.10;;;1.90;;
74789;SDS011;63318;52.406;13.416;2023-05-10T11:27:27;6.00;;;1.90;;
74789;SDS011;63318;52.406;13.416;2023-05-10T11:29:57;3.50;;;1.70;;
74789;SDS011;63318;52.406;13.416;2023-05-10T11:32:32;5.30;;;1.80;;
74789;SDS011;63318;52.406;13.416;2023-05-10T11:35:07;7.00;;;2.20;;
74789;SDS011;63318;52.406;13.416;2023-05-10T11:37:36;6.30;;;1.80;;
74789;SDS011;63318;52.406;13.416;2023-05-10T11:40:07;6.00;;;2.00;;
74789;SDS011;63318;52.406;13.416;2023-05-10T11:42:37;3.90;;;1.90;;
74789;SDS011;63318;52.406;13.416;2023-05-10T11:45:07;5.80;;;2.10;;
74789;SDS011;63318;52.406;13.416;2023-05-10T11:47:36;5.50;;;1.90;;
74789;SDS011;63318;52.406;13.416;2023-05-10T11:50:06;4.20;;;1.90;;
74789;SDS011;63318;52.406;13.416;2023-05-10T11:52:36;5.00;;;1.70;;
74789;SDS011;63318;52.406;13.416;2023-05-10T11:55:05;4.40;;;1.80;;
74789;SDS011;63318;52.406;13.416;2023-05-10T11:57:34;4.30;;;1.70;;
74789;SDS011;63318;52.406;13.416;2023-05-10T12:00:03;4.40;;;1.70;;
74789;SDS011;63318;52.406;13.416;2023-05-10T12:02:35;3.90;;;1.70;;
74789;SDS011;63318;52.406;13.416;2023-05-10T12:05:05;4.70;;;1.70;;
74789;SDS011;63318;52.406;13.416;2023-05-10T12:07:35;4.10;;;1.70;;
74789;SDS011;63318;52.406;13.416;2023-05-10T12:10:05;3.80;;;1.70;;
74789;SDS011;63318;52.406;13.416;2023-05-10T12:12:39;3.60;;;1.70;;
74789;SDS011;63318;52.406;13.416;2023-05-10T12:15:11;5.50;;;1.50;;
74789;SDS011;63318;52.406;13.416;2023-05-10T12:17:45;3.20;;;1.70;;
74789;SDS011;63318;52.406;13.416;2023-05-10T12:20:18;4.70;;;1.90;;
74789;SDS011;63318;52.406;13.416;2023-05-10T12:22:48;4.30;;;1.80;;
74789;SDS011;63318;52.406;13.416;2023-05-10T12:25:19;4.10;;;2.00;;
74789;SDS011;63318;52.406;13.416;2023-05-10T12:27:50;3.40;;;1.70;;
74789;SDS011;63318;52.406;13.416;2023-05-10T12:30:23;4.30;;;1.90;;
74789;SDS011;63318;52.406;13.416;2023-05-10T12:32:53;3.90;;;1.80;;
74789;SDS011;63318;52.406;13.416;2023-05-10T12:35:27;5.00;;;1.90;;
74789;SDS011;63318;52.406;13.416;2023-05-10T12:37:59;4.00;;;1.80;;
74789;SDS011;63318;52.406;13.416;2023-05-10T12:40:47;6.20;;;1.80;;
74789;SDS011;63318;52.406;13.416;2023-05-10T12:43:16;5.30;;;1.90;;
74789;SDS011;63318;52.406;13.416;2023-05-10T12:45:44;3.70;;;1.90;;
74789;SDS011;63318;52.406;13.416;2023-05-10T12:48:12;6.20;;;2.00;;
74789;SDS011;63318;52.406;13.416;2023-05-10T12:50:41;4.20;;;1.90;;
74789;SDS011;63318;52.406;13.416;2023-05-10T12:53:10;8.20;;;2.00;;
74789;SDS011;63318;52.406;13.416;2023-05-10T12:55:39;3.30;;;1.80;;
74789;SDS011;63318;52.406;13.416;2023-05-10T12:58:07;4.90;;;2.00;;
74789;SDS011;63318;52.406;13.416;2023-05-10T13:00:36;4.30;;;1.90;;
74789;SDS011;63318;52.406;13.416;2023-05-10T13:03:04;3.70;;;1.90;;
74789;SDS011;63318;52.406;13.416;2023-05-10T13:05:33;4.80;;;2.00;;
74789;SDS011;63318;52.406;13.416;2023-05-10T13:08:02;5.30;;;1.80;;
74789;SDS011;63318;52.406;13.416;2023-05-10T13:10:32;4.70;;;1.40;;
74789;SDS011;63318;52.406;13.416;2023-05-10T13:13:01;4.30;;;1.80;;
74789;SDS011;63318;52.406;13.416;2023-05-10T13:15:29;5.50;;;2.00;;
74789;SDS011;63318;52.406;13.416;2023-05-10T13:17:58;4.40;;;2.00;;
74789;SDS011;63318;52.406;13.416;2023-05-10T13:20:26;3.20;;;1.70;;
74789;SDS011;63318;52.406;13.416;2023-05-10T13:22:54;5.70;;;1.80;;
74789;SDS011;63318;52.406;13.416;2023-05-10T13:25:23;4.20;;;1.50;;
74789;SDS011;63318;52.406;13.416;2023-05-10T13:27:51;4.50;;;1.60;;
74789;SDS011;63318;52.406;13.416;2023-05-10T13:30:20;3.80;;;1.70;;
74789;SDS011;63318;52.406;13.416;2023-05-10T13:32:49;8.30;;;1.90;;
74789;SDS011;63318;52.406;13.416;2023-05-10T13:35:17;9.70;;;2.10;;
74789;SDS011;63318;52.406;13.416;2023-05-10T13:37:47;3.30;;;1.70;;
74789;SDS011;63318;52.406;13.416;2023-05-10T13:40:17;3.30;;;1.70;;
74789;SDS011;63318;52.406;13.416;2023-05-10T13:42:46;5.50;;;1.70;;
74789;SDS011;63318;52.406;13.416;2023-05-10T13:45:14;4.30;;;1.50;;
74789;SDS011;63318;52.406;13.416;2023-05-10T13:47:42;6.30;;;2.10;;
74789;SDS011;63318;52.406;13.416;2023-05-10T13:50:12;4.00;;;1.70;;
74789;SDS011;63318;52.406;13.416;2023-05-10T13:52:40;4.60;;;1.60;;
74789;SDS011;63318;52.406;13.416;2023-05-10T13:55:09;5.90;;;1.70;;
74789;SDS011;63318;52.406;13.416;2023-05-10T13:57:37;4.20;;;1.60;;
74789;SDS011;63318;52.406;13.416;2023-05-10T14:00:08;5.80;;;1.60;;
74789;SDS011;63318;52.406;13.416;2023-05-10T14:02:37;4.00;;;1.60;;
74789;SDS011;63318;52.406;13.416;2023-05-10T14:05:06;5.60;;;1.80;;
74789;SDS011;63318;52.406;13.416;2023-05-10T14:07:35;4.40;;;1.70;;
74789;SDS011;63318;52.406;13.416;2023-05-10T14:10:05;6.20;;;1.70;;
74789;SDS011;63318;52.406;13.416;2023-05-10T14:12:34;3.40;;;1.50;;
74789;SDS011;63318;52.406;13.416;2023-05-10T14:15:03;4.70;;;1.80;;
74789;SDS011;63318;52.406;13.416;2023-05-10T14:17:33;3.60;;;1.70;;
74789;SDS011;63318;52.406;13.416;2023-05-10T14:20:01;6.40;;;2.00;;
74789;SDS011;63318;52.406;13.416;2023-05-10T14:22:31;4.70;;;2.30;;
74789;SDS011;63318;52.406;13.416;2023-05-10T14:25:00;5.60;;;1.70;;
74789;SDS011;63318;52.406;13.416;2023-05-10T14:27:28;4.30;;;1.70;;
74789;SDS011;63318;52.406;13.416;2023-05-10T14:29:58;4.50;;;1.70;;
74789;SDS011;63318;52.406;13.416;2023-05-10T14:32:26;4.60;;;2.10;;
74789;SDS011;63318;52.406;13.416;2023-05-10T14:34:57;5.80;;;1.90;;
74789;SDS011;63318;52.406;13.416;2023-05-10T14:37:25;5.70;;;1.90;;
74789;SDS011;63318;52.406;13.416;2023-05-10T14:39:54;3.40;;;1.80;;
74789;SDS011;63318;52.406;13.416;2023-05-10T14:42:23;4.60;;;1.90;;
74789;SDS011;63318;52.406;13.416;2023-05-10T14:44:51;3.20;;;1.70;;
74789;SDS011;63318;52.406;13.416;2023-05-10T14:47:19;5.90;;;1.80;;
74789;SDS011;63318;52.406;13.416;2023-05-10T14:49:48;5.10;;;1.70;;
74789;SDS011;63318;52.406;13.416;2023-05-10T14:52:16;4.50;;;1.90;;
74789;SDS011;63318;52.406;13.416;2023-05-10T14:54:44;6.70;;;2.00;;
74789;SDS011;63318;52.406;13.416;2023-05-10T14:57:14;7.40;;;1.80;;
74789;SDS011;63318;52.406;13.416;2023-05-10T14:59:42;4.90;;;1.80;;
74789;SDS011;63318;52.406;13.416;2023-05-10T15:02:10;4.70;;;1.90;;